Terminal Aerodrome Forecast
Issued by NWS Billings, MT

Home | Current Version | Previous Version | Text Only | Print | Product List | Glossary On
Versions: 1 2 3 4 5 6 7 8 9 10 11 12 13 14 15 16 17
000
FTUS45 KBYZ 201355 AAA
TAFBIL
TAF AMD
KBIL 201355Z 2014/2112 31013G19KT P6SM SCT120 BKN200
     FM201600 31018G28KT P6SM SCT100
     FM210100 33012KT P6SM SCT150
     FM210500 28005KT P6SM SKC=

USA.gov is the U.S. government's official web portal to all federal, state and local government web resources and services.